Terminal Aerodrome Forecast
Issued by NWS

Home | Current Version | Previous Version | Text Only | Print | Product List | Glossary On
Versions: 1 2 3 4 5 6 7 8 9 10 11 12 13 14 15 16
802
FTUS46 KLOX 280207 AAA
TAFWJF
TAF AMD
KWJF 280207Z 2802/2824 25020G30KT P6SM SCT200
     FM281100 27016G22KT P6SM SKC
     FM281400 30010KT P6SM SKC
     FM281700 36015KT P6SM SKC
     FM282000 34009KT P6SM SKC
     FM282300 31015KT P6SM SKC=

USA.gov is the U.S. government's official web portal to all federal, state and local government web resources and services.